This is the latest recevied weather packets stored in our database for station/object KF5VOI. If no packets are shown the sender has not sent any weather packets the latest 10 day(s).
| Time | Temp. | Humidity | Pressure | Rain* | Wind** | Luminosity | Snow |
|---|---|---|---|---|---|---|---|
| 1777786354 | 18.89° C | 59% | 1020.9 hPa | 0 mm | - | - | - |
| 1777786114 | 18.89° C | 59% | 1020.9 hPa | 0 mm | - | - | - |
| 1777785996 | 18.89° C | 59% | 1020.9 hPa | 0 mm | - | - | - |
| 1777784116 | 18.89° C | 59% | 1021 hPa | 0 mm | - | - | - |
| 1777782316 | 19.44° C | 57% | 1020.7 hPa | 0 mm | - | - | - |
| 1777780515 | 19.44° C | 58% | 1020.5 hPa | 0 mm | - | - | - |
| 1777778715 | 20° C | 56% | 1020.3 hPa | 0 mm | - | - | - |
| 1777776916 | 20° C | 53% | 1020 hPa | 0 mm | - | - | - |
| 1777775115 | 20° C | 54% | 1019.7 hPa | 0 mm | - | - | - |
| 1777773316 | 20° C | 54% | 1019.4 hPa | 0 mm | - | - | - |
| 1777771514 | 20.56° C | 54% | 1019.1 hPa | 0 mm | - | - | - |
| 1777769714 | 20.56° C | 54% | 1018.6 hPa | 0 mm | - | - | - |
| 1777767916 | 21.67° C | 52% | 1018.2 hPa | 0 mm | - | - | - |
| 1777766116 | 22.78° C | 48% | 1017.6 hPa | 0 mm | - | - | - |
| 1777764316 | 23.89° C | 45% | 1017.4 hPa | 0 mm | - | - | - |
| 1777762515 | 23.89° C | 45% | 1017.3 hPa | 0 mm | - | - | - |
| 1777758916 | 24.44° C | 46% | 1017.2 hPa | 0 mm | - | - | - |
| 1777757114 | 23.89° C | 47% | 1017.1 hPa | 0 mm | - | - | - |
| 1777755314 | 23.89° C | 50% | 1017.2 hPa | 0 mm | - | - | - |
| 1777753515 | 24.44° C | 53% | 1017.2 hPa | 0 mm | - | - | - |
| 1777751715 | 23.89° C | 60% | 1017.6 hPa | 0 mm | - | - | - |
| 1777749914 | 23.33° C | 62% | 1017.6 hPa | 0 mm | - | - | - |
| 1777748115 | 23.89° C | 63% | 1017.7 hPa | 0 mm | - | - | - |
| 1777746317 | 23.89° C | 64% | 1017.8 hPa | 0 mm | - | - | - |
| 1777744515 | 22.78° C | 64% | 1018 hPa | 0 mm | - | - | - |
* Rain latest hour (hover to see other rain measurements)
** Current wind speed in m/s (hover to see current wind gust speed)